Terminal Aerodrome Forecast
Issued by NWS Knoxville/Tri Cities, TN

Home | Current Version | Previous Version | Text Only | Print | Product List | Glossary On
Versions: 1 2 3 4 5 6 7 8 9 10 11 12 13 14 15 16 17 18 19
000
FTUS44 KMRX 300903 AAB
TAFTYS
TAF AMD
KTYS 300903Z 3009/3106 24004KT P6SM SCT006 SCT040 BKN150
      TEMPO 3009/3011 BKN006
     FM301400 25006KT P6SM SCT040 BKN150
     FM302100 26005KT P6SM VCTS BKN050CB=

USA.gov is the U.S. government's official web portal to all federal, state and local government web resources and services.